sensor_id;sensor_type;location;lat;lon;timestamp;P1;durP1;ratioP1;P2;durP2;ratioP2
33814;SDS011;20121;51.910;8.406;2023-05-23T00:01:05;6.90;;;5.00;;
33814;SDS011;20121;51.910;8.406;2023-05-23T00:03:32;7.47;;;4.07;;
33814;SDS011;20121;51.910;8.406;2023-05-23T00:05:58;8.52;;;5.50;;
33814;SDS011;20121;51.910;8.406;2023-05-23T00:08:24;7.63;;;5.43;;
33814;SDS011;20121;51.910;8.406;2023-05-23T00:10:50;6.50;;;4.57;;
33814;SDS011;20121;51.910;8.406;2023-05-23T00:13:16;10.35;;;6.03;;
33814;SDS011;20121;51.910;8.406;2023-05-23T00:15:42;10.40;;;4.93;;
33814;SDS011;20121;51.910;8.406;2023-05-23T00:18:08;9.55;;;7.18;;
33814;SDS011;20121;51.910;8.406;2023-05-23T00:20:38;12.07;;;5.70;;
33814;SDS011;20121;51.910;8.406;2023-05-23T00:23:09;8.45;;;5.10;;
33814;SDS011;20121;51.910;8.406;2023-05-23T00:25:37;6.90;;;4.85;;
33814;SDS011;20121;51.910;8.406;2023-05-23T00:28:05;5.57;;;4.65;;
33814;SDS011;20121;51.910;8.406;2023-05-23T00:30:31;10.67;;;5.40;;
33814;SDS011;20121;51.910;8.406;2023-05-23T00:32:58;10.07;;;5.70;;
33814;SDS011;20121;51.910;8.406;2023-05-23T00:35:24;8.95;;;5.70;;
33814;SDS011;20121;51.910;8.406;2023-05-23T00:37:50;7.50;;;6.03;;
33814;SDS011;20121;51.910;8.406;2023-05-23T00:40:16;6.17;;;4.83;;
33814;SDS011;20121;51.910;8.406;2023-05-23T00:42:42;6.57;;;4.40;;
33814;SDS011;20121;51.910;8.406;2023-05-23T00:45:08;8.20;;;5.17;;
33814;SDS011;20121;51.910;8.406;2023-05-23T00:47:36;6.90;;;5.00;;
33814;SDS011;20121;51.910;8.406;2023-05-23T00:50:03;9.05;;;7.22;;
33814;SDS011;20121;51.910;8.406;2023-05-23T00:52:31;9.68;;;6.13;;
33814;SDS011;20121;51.910;8.406;2023-05-23T00:54:57;7.57;;;6.20;;
33814;SDS011;20121;51.910;8.406;2023-05-23T00:57:23;8.57;;;6.57;;
33814;SDS011;20121;51.910;8.406;2023-05-23T00:59:48;9.33;;;5.10;;
33814;SDS011;20121;51.910;8.406;2023-05-23T01:02:15;11.23;;;5.30;;
33814;SDS011;20121;51.910;8.406;2023-05-23T01:04:40;7.90;;;4.40;;
33814;SDS011;20121;51.910;8.406;2023-05-23T01:07:07;9.00;;;5.68;;
33814;SDS011;20121;51.910;8.406;2023-05-23T01:09:34;10.20;;;5.65;;
33814;SDS011;20121;51.910;8.406;2023-05-23T01:14:36;6.82;;;5.82;;
33814;SDS011;20121;51.910;8.406;2023-05-23T01:20:40;7.40;;;4.82;;
33814;SDS011;20121;51.910;8.406;2023-05-23T01:23:35;4.68;;;3.58;;
33814;SDS011;20121;51.910;8.406;2023-05-23T01:28:51;8.40;;;3.90;;
33814;SDS011;20121;51.910;8.406;2023-05-23T01:31:20;5.25;;;3.65;;
33814;SDS011;20121;51.910;8.406;2023-05-23T01:33:48;4.45;;;3.50;;
33814;SDS011;20121;51.910;8.406;2023-05-23T01:36:17;5.63;;;4.20;;
33814;SDS011;20121;51.910;8.406;2023-05-23T01:38:43;4.32;;;3.90;;
33814;SDS011;20121;51.910;8.406;2023-05-23T01:41:09;4.80;;;3.30;;
33814;SDS011;20121;51.910;8.406;2023-05-23T01:43:34;7.00;;;4.30;;
33814;SDS011;20121;51.910;8.406;2023-05-23T01:46:00;4.43;;;3.70;;
33814;SDS011;20121;51.910;8.406;2023-05-23T01:48:28;5.68;;;3.90;;
33814;SDS011;20121;51.910;8.406;2023-05-23T01:50:55;2.65;;;2.35;;
33814;SDS011;20121;51.910;8.406;2023-05-23T01:53:21;4.60;;;3.72;;
33814;SDS011;20121;51.910;8.406;2023-05-23T01:55:48;4.75;;;3.58;;
33814;SDS011;20121;51.910;8.406;2023-05-23T01:58:14;5.38;;;4.47;;
33814;SDS011;20121;51.910;8.406;2023-05-23T02:00:40;3.70;;;3.20;;
33814;SDS011;20121;51.910;8.406;2023-05-23T02:03:06;6.13;;;3.97;;
33814;SDS011;20121;51.910;8.406;2023-05-23T02:05:32;12.30;;;3.43;;
33814;SDS011;20121;51.910;8.406;2023-05-23T02:07:57;5.43;;;4.90;;
33814;SDS011;20121;51.910;8.406;2023-05-23T02:10:23;8.23;;;3.73;;
33814;SDS011;20121;51.910;8.406;2023-05-23T02:12:48;4.03;;;3.63;;
33814;SDS011;20121;51.910;8.406;2023-05-23T02:15:14;9.23;;;3.50;;
33814;SDS011;20121;51.910;8.406;2023-05-23T02:17:41;5.32;;;3.33;;
33814;SDS011;20121;51.910;8.406;2023-05-23T02:20:07;5.88;;;3.22;;
33814;SDS011;20121;51.910;8.406;2023-05-23T02:22:34;6.50;;;3.65;;
33814;SDS011;20121;51.910;8.406;2023-05-23T02:25:00;3.37;;;2.80;;
33814;SDS011;20121;51.910;8.406;2023-05-23T02:27:26;7.83;;;4.00;;
33814;SDS011;20121;51.910;8.406;2023-05-23T02:29:51;10.00;;;4.82;;
33814;SDS011;20121;51.910;8.406;2023-05-23T02:32:17;6.20;;;4.23;;
33814;SDS011;20121;51.910;8.406;2023-05-23T02:34:43;7.63;;;4.87;;
33814;SDS011;20121;51.910;8.406;2023-05-23T02:37:14;4.15;;;3.20;;
33814;SDS011;20121;51.910;8.406;2023-05-23T02:39:41;4.90;;;4.40;;
33814;SDS011;20121;51.910;8.406;2023-05-23T02:42:07;7.50;;;4.05;;
33814;SDS011;20121;51.910;8.406;2023-05-23T02:44:33;4.57;;;4.17;;
33814;SDS011;20121;51.910;8.406;2023-05-23T02:46:58;4.13;;;3.73;;
33814;SDS011;20121;51.910;8.406;2023-05-23T02:49:24;6.73;;;3.40;;
33814;SDS011;20121;51.910;8.406;2023-05-23T02:51:50;6.57;;;4.20;;
33814;SDS011;20121;51.910;8.406;2023-05-23T02:54:15;6.20;;;3.33;;
33814;SDS011;20121;51.910;8.406;2023-05-23T02:56:41;4.80;;;3.50;;
33814;SDS011;20121;51.910;8.406;2023-05-23T02:59:07;5.30;;;4.80;;
33814;SDS011;20121;51.910;8.406;2023-05-23T03:01:32;5.37;;;3.60;;
33814;SDS011;20121;51.910;8.406;2023-05-23T03:03:59;6.82;;;4.25;;
33814;SDS011;20121;51.910;8.406;2023-05-23T03:06:24;4.63;;;3.97;;
33814;SDS011;20121;51.910;8.406;2023-05-23T03:08:51;7.43;;;5.10;;
33814;SDS011;20121;51.910;8.406;2023-05-23T03:11:17;6.33;;;4.43;;
33814;SDS011;20121;51.910;8.406;2023-05-23T03:13:42;6.07;;;5.10;;
33814;SDS011;20121;51.910;8.406;2023-05-23T03:16:08;7.07;;;3.80;;
33814;SDS011;20121;51.910;8.406;2023-05-23T03:18:35;4.75;;;3.70;;
33814;SDS011;20121;51.910;8.406;2023-05-23T03:21:01;5.50;;;4.60;;
33814;SDS011;20121;51.910;8.406;2023-05-23T03:23:27;5.75;;;4.20;;
33814;SDS011;20121;51.910;8.406;2023-05-23T03:25:53;12.03;;;4.00;;
33814;SDS011;20121;51.910;8.406;2023-05-23T03:28:18;6.03;;;4.37;;
33814;SDS011;20121;51.910;8.406;2023-05-23T03:30:44;6.00;;;4.07;;
33814;SDS011;20121;51.910;8.406;2023-05-23T03:33:09;5.57;;;4.20;;
33814;SDS011;20121;51.910;8.406;2023-05-23T03:35:36;7.22;;;4.15;;
33814;SDS011;20121;51.910;8.406;2023-05-23T03:38:01;5.80;;;3.80;;
33814;SDS011;20121;51.910;8.406;2023-05-23T03:40:27;8.37;;;4.50;;
33814;SDS011;20121;51.910;8.406;2023-05-23T03:43:02;8.00;;;4.30;;
33814;SDS011;20121;51.910;8.406;2023-05-23T03:45:29;4.93;;;4.00;;
33814;SDS011;20121;51.910;8.406;2023-05-23T03:47:55;6.20;;;3.40;;
33814;SDS011;20121;51.910;8.406;2023-05-23T03:50:21;4.57;;;4.13;;
33814;SDS011;20121;51.910;8.406;2023-05-23T03:52:47;5.73;;;3.43;;
33814;SDS011;20121;51.910;8.406;2023-05-23T03:55:12;7.03;;;5.03;;
33814;SDS011;20121;51.910;8.406;2023-05-23T03:57:38;4.70;;;4.10;;
33814;SDS011;20121;51.910;8.406;2023-05-23T04:00:04;6.57;;;4.73;;
33814;SDS011;20121;51.910;8.406;2023-05-23T04:02:36;5.13;;;3.75;;
33814;SDS011;20121;51.910;8.406;2023-05-23T04:05:03;5.35;;;4.65;;
33814;SDS011;20121;51.910;8.406;2023-05-23T04:07:29;7.57;;;4.10;;
33814;SDS011;20121;51.910;8.406;2023-05-23T04:09:58;4.00;;;3.00;;
33814;SDS011;20121;51.910;8.406;2023-05-23T04:12:24;4.47;;;4.07;;
33814;SDS011;20121;51.910;8.406;2023-05-23T04:14:50;9.50;;;3.93;;
33814;SDS011;20121;51.910;8.406;2023-05-23T04:17:16;11.18;;;4.10;;
33814;SDS011;20121;51.910;8.406;2023-05-23T04:19:42;4.63;;;3.33;;
33814;SDS011;20121;51.910;8.406;2023-05-23T04:22:08;13.43;;;4.32;;
33814;SDS011;20121;51.910;8.406;2023-05-23T04:24:34;9.40;;;6.10;;
33814;SDS011;20121;51.910;8.406;2023-05-23T04:27:01;7.55;;;4.63;;
33814;SDS011;20121;51.910;8.406;2023-05-23T04:29:26;6.30;;;4.57;;
33814;SDS011;20121;51.910;8.406;2023-05-23T04:31:55;7.93;;;5.10;;
33814;SDS011;20121;51.910;8.406;2023-05-23T04:34:21;9.98;;;5.47;;
33814;SDS011;20121;51.910;8.406;2023-05-23T04:36:47;7.60;;;5.77;;
33814;SDS011;20121;51.910;8.406;2023-05-23T04:39:13;9.27;;;4.72;;
33814;SDS011;20121;51.910;8.406;2023-05-23T04:41:40;10.00;;;5.30;;
33814;SDS011;20121;51.910;8.406;2023-05-23T04:44:06;5.97;;;5.43;;
33814;SDS011;20121;51.910;8.406;2023-05-23T04:46:34;6.28;;;4.75;;
33814;SDS011;20121;51.910;8.406;2023-05-23T04:49:00;13.90;;;6.70;;
33814;SDS011;20121;51.910;8.406;2023-05-23T04:51:27;4.47;;;4.07;;
33814;SDS011;20121;51.910;8.406;2023-05-23T04:53:52;10.37;;;6.40;;
33814;SDS011;20121;51.910;8.406;2023-05-23T04:56:18;9.77;;;5.33;;
33814;SDS011;20121;51.910;8.406;2023-05-23T04:58:46;9.45;;;7.25;;
33814;SDS011;20121;51.910;8.406;2023-05-23T05:01:12;16.70;;;6.03;;
33814;SDS011;20121;51.910;8.406;2023-05-23T05:03:38;9.20;;;5.20;;
33814;SDS011;20121;51.910;8.406;2023-05-23T05:06:04;15.27;;;6.53;;
33814;SDS011;20121;51.910;8.406;2023-05-23T05:08:30;12.30;;;6.07;;
33814;SDS011;20121;51.910;8.406;2023-05-23T05:10:56;6.30;;;4.72;;
33814;SDS011;20121;51.910;8.406;2023-05-23T05:13:22;8.32;;;4.95;;
33814;SDS011;20121;51.910;8.406;2023-05-23T05:15:48;8.20;;;4.40;;
33814;SDS011;20121;51.910;8.406;2023-05-23T05:18:13;7.57;;;4.50;;
33814;SDS011;20121;51.910;8.406;2023-05-23T05:20:40;4.43;;;4.00;;
33814;SDS011;20121;51.910;8.406;2023-05-23T05:23:05;6.10;;;5.03;;
33814;SDS011;20121;51.910;8.406;2023-05-23T05:25:33;6.20;;;4.65;;
33814;SDS011;20121;51.910;8.406;2023-05-23T05:28:00;8.40;;;5.32;;
33814;SDS011;20121;51.910;8.406;2023-05-23T05:30:32;6.10;;;5.40;;
33814;SDS011;20121;51.910;8.406;2023-05-23T05:32:59;8.00;;;5.65;;
33814;SDS011;20121;51.910;8.406;2023-05-23T05:35:28;6.53;;;5.18;;
33814;SDS011;20121;51.910;8.406;2023-05-23T05:37:56;7.05;;;5.00;;
33814;SDS011;20121;51.910;8.406;2023-05-23T05:40:22;6.80;;;5.55;;
33814;SDS011;20121;51.910;8.406;2023-05-23T05:42:48;10.67;;;5.87;;
33814;SDS011;20121;51.910;8.406;2023-05-23T05:45:13;4.03;;;3.60;;
33814;SDS011;20121;51.910;8.406;2023-05-23T05:47:39;9.77;;;4.70;;
33814;SDS011;20121;51.910;8.406;2023-05-23T05:50:05;7.45;;;4.82;;
33814;SDS011;20121;51.910;8.406;2023-05-23T05:52:34;9.50;;;6.15;;
33814;SDS011;20121;51.910;8.406;2023-05-23T05:55:03;6.70;;;5.60;;
33814;SDS011;20121;51.910;8.406;2023-05-23T05:57:35;10.45;;;6.60;;
33814;SDS011;20121;51.910;8.406;2023-05-23T06:00:08;8.18;;;5.90;;
33814;SDS011;20121;51.910;8.406;2023-05-23T06:02:43;7.68;;;5.57;;
33814;SDS011;20121;51.910;8.406;2023-05-23T06:05:11;11.68;;;6.72;;
33814;SDS011;20121;51.910;8.406;2023-05-23T06:07:38;6.72;;;5.40;;
33814;SDS011;20121;51.910;8.406;2023-05-23T06:10:04;8.77;;;5.97;;
33814;SDS011;20121;51.910;8.406;2023-05-23T06:12:31;8.55;;;5.97;;
33814;SDS011;20121;51.910;8.406;2023-05-23T06:14:57;9.88;;;7.63;;
33814;SDS011;20121;51.910;8.406;2023-05-23T06:17:22;9.60;;;6.17;;
33814;SDS011;20121;51.910;8.406;2023-05-23T06:19:48;11.23;;;5.77;;
33814;SDS011;20121;51.910;8.406;2023-05-23T06:22:14;16.83;;;6.10;;
33814;SDS011;20121;51.910;8.406;2023-05-23T06:24:39;8.43;;;5.50;;
33814;SDS011;20121;51.910;8.406;2023-05-23T06:27:05;6.93;;;4.20;;
33814;SDS011;20121;51.910;8.406;2023-05-23T06:29:31;9.70;;;7.53;;
33814;SDS011;20121;51.910;8.406;2023-05-23T06:31:56;12.87;;;5.53;;
33814;SDS011;20121;51.910;8.406;2023-05-23T06:34:22;10.10;;;5.20;;
33814;SDS011;20121;51.910;8.406;2023-05-23T06:36:47;7.80;;;4.77;;
33814;SDS011;20121;51.910;8.406;2023-05-23T06:39:13;8.23;;;5.87;;
33814;SDS011;20121;51.910;8.406;2023-05-23T06:41:39;8.90;;;6.28;;
33814;SDS011;20121;51.910;8.406;2023-05-23T06:44:05;9.93;;;6.27;;
33814;SDS011;20121;51.910;8.406;2023-05-23T06:46:30;12.07;;;6.70;;
33814;SDS011;20121;51.910;8.406;2023-05-23T06:48:56;11.67;;;6.60;;
33814;SDS011;20121;51.910;8.406;2023-05-23T06:51:22;12.03;;;4.70;;
33814;SDS011;20121;51.910;8.406;2023-05-23T06:53:47;8.50;;;5.27;;
33814;SDS011;20121;51.910;8.406;2023-05-23T06:56:13;8.90;;;5.23;;
33814;SDS011;20121;51.910;8.406;2023-05-23T06:58:39;8.50;;;4.53;;
33814;SDS011;20121;51.910;8.406;2023-05-23T07:01:05;14.67;;;5.20;;
33814;SDS011;20121;51.910;8.406;2023-05-23T07:03:31;5.10;;;4.57;;
33814;SDS011;20121;51.910;8.406;2023-05-23T07:05:57;7.68;;;4.30;;
33814;SDS011;20121;51.910;8.406;2023-05-23T07:08:23;5.37;;;4.03;;
33814;SDS011;20121;51.910;8.406;2023-05-23T07:10:48;8.20;;;3.40;;
33814;SDS011;20121;51.910;8.406;2023-05-23T07:13:14;6.60;;;3.37;;
33814;SDS011;20121;51.910;8.406;2023-05-23T07:15:40;15.17;;;3.80;;
33814;SDS011;20121;51.910;8.406;2023-05-23T07:18:05;3.13;;;2.83;;
33814;SDS011;20121;51.910;8.406;2023-05-23T07:20:31;8.00;;;3.27;;
33814;SDS011;20121;51.910;8.406;2023-05-23T07:22:58;4.93;;;3.47;;
33814;SDS011;20121;51.910;8.406;2023-05-23T07:25:24;3.40;;;3.10;;
33814;SDS011;20121;51.910;8.406;2023-05-23T07:27:50;6.47;;;4.40;;
33814;SDS011;20121;51.910;8.406;2023-05-23T07:30:18;4.60;;;3.72;;
33814;SDS011;20121;51.910;8.406;2023-05-23T07:32:46;5.50;;;2.75;;
33814;SDS011;20121;51.910;8.406;2023-05-23T07:35:13;5.68;;;3.20;;
33814;SDS011;20121;51.910;8.406;2023-05-23T07:37:39;3.95;;;2.90;;
33814;SDS011;20121;51.910;8.406;2023-05-23T07:40:05;5.00;;;3.77;;
33814;SDS011;20121;51.910;8.406;2023-05-23T07:42:33;3.88;;;3.47;;
33814;SDS011;20121;51.910;8.406;2023-05-23T07:44:58;4.83;;;2.37;;
33814;SDS011;20121;51.910;8.406;2023-05-23T07:47:25;2.20;;;2.00;;
33814;SDS011;20121;51.910;8.406;2023-05-23T07:49:51;1.58;;;1.48;;
33814;SDS011;20121;51.910;8.406;2023-05-23T07:52:17;2.20;;;1.95;;
33814;SDS011;20121;51.910;8.406;2023-05-23T07:54:43;12.68;;;2.42;;
33814;SDS011;20121;51.910;8.406;2023-05-23T07:57:09;1.10;;;1.00;;
33814;SDS011;20121;51.910;8.406;2023-05-23T07:59:35;3.97;;;1.30;;
33814;SDS011;20121;51.910;8.406;2023-05-23T08:02:01;1.63;;;1.43;;
33814;SDS011;20121;51.910;8.406;2023-05-23T08:04:27;2.75;;;2.50;;
33814;SDS011;20121;51.910;8.406;2023-05-23T08:06:53;1.97;;;1.33;;
33814;SDS011;20121;51.910;8.406;2023-05-23T08:09:19;4.25;;;1.85;;
33814;SDS011;20121;51.910;8.406;2023-05-23T08:11:47;0.70;;;0.70;;
33814;SDS011;20121;51.910;8.406;2023-05-23T08:14:12;1.53;;;1.33;;
33814;SDS011;20121;51.910;8.406;2023-05-23T08:16:38;1.10;;;1.00;;
33814;SDS011;20121;51.910;8.406;2023-05-23T08:19:04;1.47;;;1.37;;
33814;SDS011;20121;51.910;8.406;2023-05-23T08:21:29;0.80;;;0.80;;
33814;SDS011;20121;51.910;8.406;2023-05-23T08:23:56;3.15;;;1.35;;
33814;SDS011;20121;51.910;8.406;2023-05-23T08:26:22;2.90;;;1.20;;
33814;SDS011;20121;51.910;8.406;2023-05-23T08:28:47;2.10;;;2.00;;
33814;SDS011;20121;51.910;8.406;2023-05-23T08:31:13;2.43;;;2.23;;
33814;SDS011;20121;51.910;8.406;2023-05-23T08:33:39;2.17;;;1.97;;
33814;SDS011;20121;51.910;8.406;2023-05-23T08:36:04;2.00;;;1.90;;
33814;SDS011;20121;51.910;8.406;2023-05-23T08:38:30;1.63;;;1.27;;
33814;SDS011;20121;51.910;8.406;2023-05-23T08:40:56;2.93;;;2.60;;
33814;SDS011;20121;51.910;8.406;2023-05-23T08:43:26;3.03;;;2.60;;
33814;SDS011;20121;51.910;8.406;2023-05-23T08:45:52;3.95;;;3.35;;
33814;SDS011;20121;51.910;8.406;2023-05-23T08:48:19;2.05;;;1.88;;
33814;SDS011;20121;51.910;8.406;2023-05-23T08:50:46;2.67;;;1.95;;
33814;SDS011;20121;51.910;8.406;2023-05-23T08:53:14;1.90;;;1.70;;
33814;SDS011;20121;51.910;8.406;2023-05-23T08:55:46;3.28;;;2.97;;
33814;SDS011;20121;51.910;8.406;2023-05-23T08:58:19;2.35;;;2.10;;
33814;SDS011;20121;51.910;8.406;2023-05-23T09:00:46;1.58;;;1.48;;
33814;SDS011;20121;51.910;8.406;2023-05-23T09:03:12;3.63;;;1.80;;
33814;SDS011;20121;51.910;8.406;2023-05-23T09:05:38;1.57;;;1.47;;
33814;SDS011;20121;51.910;8.406;2023-05-23T09:08:05;2.95;;;1.40;;
33814;SDS011;20121;51.910;8.406;2023-05-23T09:10:31;0.80;;;0.80;;
33814;SDS011;20121;51.910;8.406;2023-05-23T09:12:56;2.03;;;1.87;;
33814;SDS011;20121;51.910;8.406;2023-05-23T09:15:22;2.77;;;2.43;;
33814;SDS011;20121;51.910;8.406;2023-05-23T09:17:48;3.85;;;3.10;;
33814;SDS011;20121;51.910;8.406;2023-05-23T09:20:15;3.67;;;3.07;;
33814;SDS011;20121;51.910;8.406;2023-05-23T09:22:48;4.47;;;4.07;;
33814;SDS011;20121;51.910;8.406;2023-05-23T09:25:14;6.70;;;2.63;;
33814;SDS011;20121;51.910;8.406;2023-05-23T09:27:40;4.13;;;2.35;;
33814;SDS011;20121;51.910;8.406;2023-05-23T09:30:07;5.15;;;2.28;;
33814;SDS011;20121;51.910;8.406;2023-05-23T09:32:34;3.97;;;3.40;;
33814;SDS011;20121;51.910;8.406;2023-05-23T09:35:03;8.30;;;2.10;;
33814;SDS011;20121;51.910;8.406;2023-05-23T09:40:05;3.22;;;2.25;;
33814;SDS011;20121;51.910;8.406;2023-05-23T09:42:34;4.95;;;3.78;;
33814;SDS011;20121;51.910;8.406;2023-05-23T09:45:00;3.47;;;3.17;;
33814;SDS011;20121;51.910;8.406;2023-05-23T09:47:26;3.58;;;2.78;;
33814;SDS011;20121;51.910;8.406;2023-05-23T09:49:51;5.80;;;2.43;;
33814;SDS011;20121;51.910;8.406;2023-05-23T09:52:17;6.17;;;3.00;;
33814;SDS011;20121;51.910;8.406;2023-05-23T09:54:44;4.40;;;3.10;;
33814;SDS011;20121;51.910;8.406;2023-05-23T09:57:11;5.57;;;2.40;;
33814;SDS011;20121;51.910;8.406;2023-05-23T09:59:40;5.55;;;2.33;;
33814;SDS011;20121;51.910;8.406;2023-05-23T10:02:12;3.50;;;3.20;;
33814;SDS011;20121;51.910;8.406;2023-05-23T10:04:41;4.75;;;3.47;;
33814;SDS011;20121;51.910;8.406;2023-05-23T10:07:17;3.80;;;3.40;;
33814;SDS011;20121;51.910;8.406;2023-05-23T10:09:46;7.80;;;3.42;;
33814;SDS011;20121;51.910;8.406;2023-05-23T10:15:09;6.07;;;2.53;;
33814;SDS011;20121;51.910;8.406;2023-05-23T10:20:15;2.63;;;1.95;;
33814;SDS011;20121;51.910;8.406;2023-05-23T10:22:42;4.90;;;2.28;;
33814;SDS011;20121;51.910;8.406;2023-05-23T10:25:08;10.25;;;2.45;;
33814;SDS011;20121;51.910;8.406;2023-05-23T10:27:37;4.18;;;2.63;;
33814;SDS011;20121;51.910;8.406;2023-05-23T10:30:04;1.98;;;1.48;;
33814;SDS011;20121;51.910;8.406;2023-05-23T10:32:31;5.10;;;2.70;;
33814;SDS011;20121;51.910;8.406;2023-05-23T10:37:37;7.70;;;3.97;;
33814;SDS011;20121;51.910;8.406;2023-05-23T10:40:17;3.47;;;2.25;;
33814;SDS011;20121;51.910;8.406;2023-05-23T10:42:56;4.57;;;2.30;;
33814;SDS011;20121;51.910;8.406;2023-05-23T10:45:29;3.88;;;2.88;;
33814;SDS011;20121;51.910;8.406;2023-05-23T10:48:03;3.55;;;3.25;;
33814;SDS011;20121;51.910;8.406;2023-05-23T10:50:45;8.65;;;3.20;;
33814;SDS011;20121;51.910;8.406;2023-05-23T10:53:25;11.00;;;4.10;;
33814;SDS011;20121;51.910;8.406;2023-05-23T10:55:54;2.63;;;2.20;;
33814;SDS011;20121;51.910;8.406;2023-05-23T10:58:20;4.45;;;2.80;;
33814;SDS011;20121;51.910;8.406;2023-05-23T11:00:59;3.78;;;2.70;;
33814;SDS011;20121;51.910;8.406;2023-05-23T11:03:35;9.07;;;3.58;;
33814;SDS011;20121;51.910;8.406;2023-05-23T11:06:01;7.93;;;2.63;;
33814;SDS011;20121;51.910;8.406;2023-05-23T11:08:39;3.08;;;2.75;;
33814;SDS011;20121;51.910;8.406;2023-05-23T11:11:09;3.05;;;2.47;;
33814;SDS011;20121;51.910;8.406;2023-05-23T11:16:50;5.95;;;2.55;;
33814;SDS011;20121;51.910;8.406;2023-05-23T11:21:51;5.15;;;2.70;;
33814;SDS011;20121;51.910;8.406;2023-05-23T11:24:18;2.13;;;1.92;;
33814;SDS011;20121;51.910;8.406;2023-05-23T11:26:53;2.90;;;2.60;;
33814;SDS011;20121;51.910;8.406;2023-05-23T11:29:24;3.28;;;2.22;;
33814;SDS011;20121;51.910;8.406;2023-05-23T11:31:53;1.73;;;1.63;;
33814;SDS011;20121;51.910;8.406;2023-05-23T11:34:20;2.78;;;1.80;;
33814;SDS011;20121;51.910;8.406;2023-05-23T11:36:46;4.22;;;2.40;;
33814;SDS011;20121;51.910;8.406;2023-05-23T11:39:16;3.42;;;1.92;;
33814;SDS011;20121;51.910;8.406;2023-05-23T11:41:43;9.98;;;2.33;;
33814;SDS011;20121;51.910;8.406;2023-05-23T11:44:11;4.30;;;2.07;;
33814;SDS011;20121;51.910;8.406;2023-05-23T11:46:37;7.10;;;1.90;;
33814;SDS011;20121;51.910;8.406;2023-05-23T11:49:09;3.10;;;2.03;;
33814;SDS011;20121;51.910;8.406;2023-05-23T11:51:35;2.92;;;2.53;;
33814;SDS011;20121;51.910;8.406;2023-05-23T11:54:01;7.00;;;2.07;;
33814;SDS011;20121;51.910;8.406;2023-05-23T11:56:27;3.80;;;1.90;;
33814;SDS011;20121;51.910;8.406;2023-05-23T11:58:53;2.57;;;1.50;;
33814;SDS011;20121;51.910;8.406;2023-05-23T12:01:21;4.63;;;1.33;;
33814;SDS011;20121;51.910;8.406;2023-05-23T12:03:55;3.63;;;2.50;;
33814;SDS011;20121;51.910;8.406;2023-05-23T12:06:21;6.18;;;2.25;;
33814;SDS011;20121;51.910;8.406;2023-05-23T12:08:49;7.80;;;1.50;;
33814;SDS011;20121;51.910;8.406;2023-05-23T12:11:16;5.15;;;2.17;;
33814;SDS011;20121;51.910;8.406;2023-05-23T12:13:42;1.53;;;1.30;;
33814;SDS011;20121;51.910;8.406;2023-05-23T12:16:08;8.15;;;2.03;;
33814;SDS011;20121;51.910;8.406;2023-05-23T12:18:37;2.10;;;1.92;;
33814;SDS011;20121;51.910;8.406;2023-05-23T12:21:03;2.50;;;1.47;;
33814;SDS011;20121;51.910;8.406;2023-05-23T12:23:32;4.97;;;4.47;;
33814;SDS011;20121;51.910;8.406;2023-05-23T12:25:58;3.55;;;2.42;;
33814;SDS011;20121;51.910;8.406;2023-05-23T12:28:33;2.53;;;2.00;;
33814;SDS011;20121;51.910;8.406;2023-05-23T12:33:39;2.20;;;2.00;;
33814;SDS011;20121;51.910;8.406;2023-05-23T12:36:09;3.78;;;2.95;;
33814;SDS011;20121;51.910;8.406;2023-05-23T12:39:00;4.22;;;2.75;;
33814;SDS011;20121;51.910;8.406;2023-05-23T12:41:31;4.10;;;2.28;;
33814;SDS011;20121;51.910;8.406;2023-05-23T12:43:58;6.95;;;2.88;;
33814;SDS011;20121;51.910;8.406;2023-05-23T12:46:24;5.47;;;1.80;;
33814;SDS011;20121;51.910;8.406;2023-05-23T12:48:51;4.00;;;1.77;;
33814;SDS011;20121;51.910;8.406;2023-05-23T12:51:17;10.20;;;2.42;;
33814;SDS011;20121;51.910;8.406;2023-05-23T12:53:43;3.00;;;1.95;;
33814;SDS011;20121;51.910;8.406;2023-05-23T12:56:09;6.03;;;2.10;;
33814;SDS011;20121;51.910;8.406;2023-05-23T12:58:35;5.53;;;2.27;;
33814;SDS011;20121;51.910;8.406;2023-05-23T13:01:01;11.40;;;2.10;;
33814;SDS011;20121;51.910;8.406;2023-05-23T13:03:27;8.02;;;2.40;;
33814;SDS011;20121;51.910;8.406;2023-05-23T13:05:56;3.22;;;2.15;;
33814;SDS011;20121;51.910;8.406;2023-05-23T13:08:22;7.70;;;2.97;;
33814;SDS011;20121;51.910;8.406;2023-05-23T13:10:48;3.70;;;1.73;;
33814;SDS011;20121;51.910;8.406;2023-05-23T13:13:14;3.33;;;1.90;;
33814;SDS011;20121;51.910;8.406;2023-05-23T13:15:40;6.87;;;1.80;;
33814;SDS011;20121;51.910;8.406;2023-05-23T13:18:06;12.97;;;2.30;;
33814;SDS011;20121;51.910;8.406;2023-05-23T13:20:31;5.50;;;1.53;;
33814;SDS011;20121;51.910;8.406;2023-05-23T13:22:58;8.80;;;2.00;;
33814;SDS011;20121;51.910;8.406;2023-05-23T13:25:25;3.83;;;1.90;;
33814;SDS011;20121;51.910;8.406;2023-05-23T13:27:51;2.85;;;1.42;;
33814;SDS011;20121;51.910;8.406;2023-05-23T13:30:21;3.65;;;2.40;;
33814;SDS011;20121;51.910;8.406;2023-05-23T13:32:48;9.13;;;3.70;;
33814;SDS011;20121;51.910;8.406;2023-05-23T13:35:14;2.63;;;1.63;;
33814;SDS011;20121;51.910;8.406;2023-05-23T13:37:40;8.63;;;2.13;;
33814;SDS011;20121;51.910;8.406;2023-05-23T13:40:06;2.97;;;1.87;;
33814;SDS011;20121;51.910;8.406;2023-05-23T13:42:36;3.25;;;1.70;;
33814;SDS011;20121;51.910;8.406;2023-05-23T13:45:02;2.37;;;1.30;;
33814;SDS011;20121;51.910;8.406;2023-05-23T13:47:29;1.70;;;1.45;;
33814;SDS011;20121;51.910;8.406;2023-05-23T13:49:54;3.90;;;1.60;;
33814;SDS011;20121;51.910;8.406;2023-05-23T13:52:20;2.90;;;1.80;;
33814;SDS011;20121;51.910;8.406;2023-05-23T13:54:46;3.47;;;2.03;;
33814;SDS011;20121;51.910;8.406;2023-05-23T13:57:12;1.87;;;1.30;;
33814;SDS011;20121;51.910;8.406;2023-05-23T13:59:37;3.07;;;2.43;;
33814;SDS011;20121;51.910;8.406;2023-05-23T14:02:03;2.53;;;1.77;;
33814;SDS011;20121;51.910;8.406;2023-05-23T14:04:29;3.65;;;1.80;;
33814;SDS011;20121;51.910;8.406;2023-05-23T14:06:56;5.43;;;1.88;;
33814;SDS011;20121;51.910;8.406;2023-05-23T14:09:22;5.23;;;1.50;;
33814;SDS011;20121;51.910;8.406;2023-05-23T14:11:47;1.63;;;1.50;;
33814;SDS011;20121;51.910;8.406;2023-05-23T14:14:15;2.17;;;1.60;;
33814;SDS011;20121;51.910;8.406;2023-05-23T14:16:41;1.70;;;1.60;;
33814;SDS011;20121;51.910;8.406;2023-05-23T14:19:06;1.93;;;1.30;;
33814;SDS011;20121;51.910;8.406;2023-05-23T14:21:32;6.60;;;2.30;;
33814;SDS011;20121;51.910;8.406;2023-05-23T14:23:58;4.20;;;1.73;;
33814;SDS011;20121;51.910;8.406;2023-05-23T14:26:23;5.63;;;1.93;;
33814;SDS011;20121;51.910;8.406;2023-05-23T14:28:49;5.10;;;1.30;;
33814;SDS011;20121;51.910;8.406;2023-05-23T14:31:15;2.53;;;1.60;;
33814;SDS011;20121;51.910;8.406;2023-05-23T14:33:41;1.70;;;1.60;;
33814;SDS011;20121;51.910;8.406;2023-05-23T14:36:06;3.03;;;1.57;;
33814;SDS011;20121;51.910;8.406;2023-05-23T14:38:32;2.78;;;1.80;;
33814;SDS011;20121;51.910;8.406;2023-05-23T14:40:58;1.57;;;1.10;;
33814;SDS011;20121;51.910;8.406;2023-05-23T14:43:24;1.80;;;1.43;;
33814;SDS011;20121;51.910;8.406;2023-05-23T14:45:49;1.80;;;1.60;;
33814;SDS011;20121;51.910;8.406;2023-05-23T14:48:15;2.30;;;1.80;;
33814;SDS011;20121;51.910;8.406;2023-05-23T14:50:41;4.83;;;1.43;;
33814;SDS011;20121;51.910;8.406;2023-05-23T14:53:07;2.93;;;1.20;;
33814;SDS011;20121;51.910;8.406;2023-05-23T14:55:32;4.60;;;2.43;;
33814;SDS011;20121;51.910;8.406;2023-05-23T14:57:58;1.80;;;1.70;;
33814;SDS011;20121;51.910;8.406;2023-05-23T15:00:24;2.20;;;1.40;;
33814;SDS011;20121;51.910;8.406;2023-05-23T15:02:49;7.03;;;2.53;;
33814;SDS011;20121;51.910;8.406;2023-05-23T15:05:16;7.40;;;2.03;;
33814;SDS011;20121;51.910;8.406;2023-05-23T15:07:41;1.67;;;1.57;;
33814;SDS011;20121;51.910;8.406;2023-05-23T15:10:08;2.65;;;1.60;;
33814;SDS011;20121;51.910;8.406;2023-05-23T15:12:34;7.07;;;2.00;;